sensor_id;sensor_type;location;lat;lon;timestamp;P1;durP1;ratioP1;P2;durP2;ratioP2
29422;SDS011;16399;51.686;8.684;2023-07-02T00:01:47;15.68;;;5.08;;
29422;SDS011;16399;51.686;8.684;2023-07-02T00:04:50;7.53;;;4.50;;
29422;SDS011;16399;51.686;8.684;2023-07-02T00:07:52;6.35;;;4.25;;
29422;SDS011;16399;51.686;8.684;2023-07-02T00:10:55;10.63;;;4.87;;
29422;SDS011;16399;51.686;8.684;2023-07-02T00:13:57;7.92;;;5.10;;
29422;SDS011;16399;51.686;8.684;2023-07-02T00:16:59;10.63;;;5.42;;
29422;SDS011;16399;51.686;8.684;2023-07-02T00:20:02;10.28;;;5.90;;
29422;SDS011;16399;51.686;8.684;2023-07-02T00:23:04;10.95;;;6.00;;
29422;SDS011;16399;51.686;8.684;2023-07-02T00:26:08;13.72;;;6.12;;
29422;SDS011;16399;51.686;8.684;2023-07-02T00:29:10;13.43;;;5.70;;
29422;SDS011;16399;51.686;8.684;2023-07-02T00:32:13;11.20;;;5.90;;
29422;SDS011;16399;51.686;8.684;2023-07-02T00:35:15;9.73;;;5.53;;
29422;SDS011;16399;51.686;8.684;2023-07-02T00:38:17;8.28;;;5.72;;
29422;SDS011;16399;51.686;8.684;2023-07-02T00:41:19;13.25;;;6.65;;
29422;SDS011;16399;51.686;8.684;2023-07-02T00:44:22;14.75;;;6.00;;
29422;SDS011;16399;51.686;8.684;2023-07-02T00:47:24;12.00;;;5.25;;
29422;SDS011;16399;51.686;8.684;2023-07-02T00:50:26;20.62;;;6.58;;
29422;SDS011;16399;51.686;8.684;2023-07-02T00:53:29;8.63;;;5.47;;
29422;SDS011;16399;51.686;8.684;2023-07-02T00:56:33;9.95;;;5.72;;
29422;SDS011;16399;51.686;8.684;2023-07-02T00:59:35;11.97;;;6.30;;
29422;SDS011;16399;51.686;8.684;2023-07-02T01:02:38;12.18;;;6.62;;
29422;SDS011;16399;51.686;8.684;2023-07-02T01:05:42;10.55;;;6.10;;
29422;SDS011;16399;51.686;8.684;2023-07-02T01:08:44;9.55;;;5.80;;
29422;SDS011;16399;51.686;8.684;2023-07-02T01:11:59;13.23;;;6.23;;
29422;SDS011;16399;51.686;8.684;2023-07-02T01:15:03;10.15;;;6.28;;
29422;SDS011;16399;51.686;8.684;2023-07-02T01:18:07;11.60;;;6.87;;
29422;SDS011;16399;51.686;8.684;2023-07-02T01:21:10;11.10;;;5.87;;
29422;SDS011;16399;51.686;8.684;2023-07-02T01:24:12;11.55;;;5.97;;
29422;SDS011;16399;51.686;8.684;2023-07-02T01:27:15;11.45;;;5.75;;
29422;SDS011;16399;51.686;8.684;2023-07-02T01:30:18;9.55;;;6.22;;
29422;SDS011;16399;51.686;8.684;2023-07-02T01:33:20;10.68;;;5.60;;
29422;SDS011;16399;51.686;8.684;2023-07-02T01:36:23;11.70;;;5.47;;
29422;SDS011;16399;51.686;8.684;2023-07-02T01:39:25;10.30;;;5.45;;
29422;SDS011;16399;51.686;8.684;2023-07-02T01:42:27;10.43;;;5.62;;
29422;SDS011;16399;51.686;8.684;2023-07-02T01:45:29;10.58;;;5.85;;
29422;SDS011;16399;51.686;8.684;2023-07-02T01:48:32;14.25;;;7.03;;
29422;SDS011;16399;51.686;8.684;2023-07-02T01:51:34;12.10;;;6.15;;
29422;SDS011;16399;51.686;8.684;2023-07-02T01:54:36;13.43;;;6.78;;
29422;SDS011;16399;51.686;8.684;2023-07-02T01:57:39;13.43;;;6.78;;
29422;SDS011;16399;51.686;8.684;2023-07-02T02:00:41;10.08;;;6.40;;
29422;SDS011;16399;51.686;8.684;2023-07-02T02:03:43;8.78;;;5.72;;
29422;SDS011;16399;51.686;8.684;2023-07-02T02:06:45;10.18;;;6.40;;
29422;SDS011;16399;51.686;8.684;2023-07-02T02:09:48;9.25;;;6.47;;
29422;SDS011;16399;51.686;8.684;2023-07-02T02:12:50;10.35;;;6.30;;
29422;SDS011;16399;51.686;8.684;2023-07-02T02:15:53;10.13;;;6.42;;
29422;SDS011;16399;51.686;8.684;2023-07-02T02:18:56;9.13;;;6.17;;
29422;SDS011;16399;51.686;8.684;2023-07-02T02:21:58;10.85;;;6.35;;
29422;SDS011;16399;51.686;8.684;2023-07-02T02:25:00;11.10;;;6.67;;
29422;SDS011;16399;51.686;8.684;2023-07-02T02:28:04;10.13;;;6.10;;
29422;SDS011;16399;51.686;8.684;2023-07-02T02:31:06;11.10;;;6.25;;
29422;SDS011;16399;51.686;8.684;2023-07-02T02:34:08;10.93;;;6.47;;
29422;SDS011;16399;51.686;8.684;2023-07-02T02:37:10;10.95;;;6.85;;
29422;SDS011;16399;51.686;8.684;2023-07-02T02:40:13;11.38;;;6.05;;
29422;SDS011;16399;51.686;8.684;2023-07-02T02:43:15;9.83;;;6.12;;
29422;SDS011;16399;51.686;8.684;2023-07-02T02:46:20;12.03;;;6.85;;
29422;SDS011;16399;51.686;8.684;2023-07-02T02:49:23;10.82;;;6.42;;
29422;SDS011;16399;51.686;8.684;2023-07-02T02:52:26;10.43;;;5.85;;
29422;SDS011;16399;51.686;8.684;2023-07-02T02:55:28;11.43;;;6.47;;
29422;SDS011;16399;51.686;8.684;2023-07-02T02:58:30;12.95;;;6.45;;
29422;SDS011;16399;51.686;8.684;2023-07-02T03:01:33;8.88;;;6.17;;
29422;SDS011;16399;51.686;8.684;2023-07-02T03:04:35;11.85;;;6.35;;
29422;SDS011;16399;51.686;8.684;2023-07-02T03:07:39;10.40;;;6.72;;
29422;SDS011;16399;51.686;8.684;2023-07-02T03:10:41;13.93;;;6.50;;
29422;SDS011;16399;51.686;8.684;2023-07-02T03:13:44;11.70;;;7.20;;
29422;SDS011;16399;51.686;8.684;2023-07-02T03:16:46;14.65;;;6.67;;
29422;SDS011;16399;51.686;8.684;2023-07-02T03:19:48;9.55;;;6.60;;
29422;SDS011;16399;51.686;8.684;2023-07-02T03:22:51;13.05;;;7.90;;
29422;SDS011;16399;51.686;8.684;2023-07-02T03:25:53;15.63;;;7.50;;
29422;SDS011;16399;51.686;8.684;2023-07-02T03:28:55;11.18;;;7.20;;
29422;SDS011;16399;51.686;8.684;2023-07-02T03:31:58;14.68;;;7.47;;
29422;SDS011;16399;51.686;8.684;2023-07-02T03:35:00;12.58;;;6.83;;
29422;SDS011;16399;51.686;8.684;2023-07-02T03:38:03;13.55;;;7.45;;
29422;SDS011;16399;51.686;8.684;2023-07-02T03:41:08;11.33;;;7.75;;
29422;SDS011;16399;51.686;8.684;2023-07-02T03:44:10;8.10;;;5.97;;
29422;SDS011;16399;51.686;8.684;2023-07-02T03:47:12;13.93;;;6.70;;
29422;SDS011;16399;51.686;8.684;2023-07-02T03:50:16;13.90;;;7.08;;
29422;SDS011;16399;51.686;8.684;2023-07-02T03:53:18;16.10;;;7.75;;
29422;SDS011;16399;51.686;8.684;2023-07-02T03:56:21;12.25;;;7.67;;
29422;SDS011;16399;51.686;8.684;2023-07-02T03:59:23;12.80;;;6.87;;
29422;SDS011;16399;51.686;8.684;2023-07-02T04:02:25;13.28;;;7.10;;
29422;SDS011;16399;51.686;8.684;2023-07-02T04:05:28;14.40;;;7.20;;
29422;SDS011;16399;51.686;8.684;2023-07-02T04:08:30;15.32;;;7.08;;
29422;SDS011;16399;51.686;8.684;2023-07-02T04:11:33;13.72;;;7.40;;
29422;SDS011;16399;51.686;8.684;2023-07-02T04:14:35;13.55;;;7.15;;
29422;SDS011;16399;51.686;8.684;2023-07-02T04:17:37;11.75;;;6.78;;
29422;SDS011;16399;51.686;8.684;2023-07-02T04:20:40;12.25;;;6.20;;
29422;SDS011;16399;51.686;8.684;2023-07-02T04:23:42;12.00;;;6.83;;
29422;SDS011;16399;51.686;8.684;2023-07-02T04:26:44;11.05;;;6.50;;
29422;SDS011;16399;51.686;8.684;2023-07-02T04:29:46;14.68;;;6.78;;
29422;SDS011;16399;51.686;8.684;2023-07-02T04:32:49;10.45;;;5.78;;
29422;SDS011;16399;51.686;8.684;2023-07-02T04:35:51;15.03;;;7.17;;
29422;SDS011;16399;51.686;8.684;2023-07-02T04:38:53;15.72;;;6.83;;
29422;SDS011;16399;51.686;8.684;2023-07-02T04:41:56;22.73;;;7.47;;
29422;SDS011;16399;51.686;8.684;2023-07-02T04:44:59;15.40;;;8.38;;
29422;SDS011;16399;51.686;8.684;2023-07-02T04:48:03;19.37;;;6.85;;
29422;SDS011;16399;51.686;8.684;2023-07-02T04:51:06;14.30;;;7.47;;
29422;SDS011;16399;51.686;8.684;2023-07-02T04:54:08;21.15;;;8.63;;
29422;SDS011;16399;51.686;8.684;2023-07-02T04:57:10;16.75;;;7.97;;
29422;SDS011;16399;51.686;8.684;2023-07-02T05:00:14;24.87;;;10.53;;
29422;SDS011;16399;51.686;8.684;2023-07-02T05:03:17;17.00;;;8.05;;
29422;SDS011;16399;51.686;8.684;2023-07-02T05:06:19;14.55;;;8.55;;
29422;SDS011;16399;51.686;8.684;2023-07-02T05:09:22;18.45;;;9.25;;
29422;SDS011;16399;51.686;8.684;2023-07-02T05:12:24;20.50;;;9.08;;
29422;SDS011;16399;51.686;8.684;2023-07-02T05:15:26;15.30;;;8.95;;
29422;SDS011;16399;51.686;8.684;2023-07-02T05:18:28;17.77;;;9.33;;
29422;SDS011;16399;51.686;8.684;2023-07-02T05:21:31;20.62;;;9.83;;
29422;SDS011;16399;51.686;8.684;2023-07-02T05:24:33;18.48;;;10.65;;
29422;SDS011;16399;51.686;8.684;2023-07-02T05:27:35;19.85;;;10.10;;
29422;SDS011;16399;51.686;8.684;2023-07-02T05:30:38;17.20;;;9.43;;
29422;SDS011;16399;51.686;8.684;2023-07-02T05:33:40;19.67;;;10.00;;
29422;SDS011;16399;51.686;8.684;2023-07-02T05:36:42;18.95;;;9.68;;
29422;SDS011;16399;51.686;8.684;2023-07-02T05:39:45;22.42;;;10.65;;
29422;SDS011;16399;51.686;8.684;2023-07-02T05:42:47;19.42;;;10.10;;
29422;SDS011;16399;51.686;8.684;2023-07-02T05:45:50;24.20;;;9.90;;
29422;SDS011;16399;51.686;8.684;2023-07-02T05:48:53;21.17;;;9.83;;
29422;SDS011;16399;51.686;8.684;2023-07-02T05:51:57;21.85;;;10.15;;
29422;SDS011;16399;51.686;8.684;2023-07-02T05:54:59;16.48;;;8.93;;
29422;SDS011;16399;51.686;8.684;2023-07-02T05:58:01;21.85;;;10.55;;
29422;SDS011;16399;51.686;8.684;2023-07-02T06:01:04;20.05;;;9.10;;
29422;SDS011;16399;51.686;8.684;2023-07-02T06:04:06;22.95;;;9.78;;
29422;SDS011;16399;51.686;8.684;2023-07-02T06:07:09;18.52;;;9.40;;
29422;SDS011;16399;51.686;8.684;2023-07-02T06:10:11;19.87;;;9.20;;
29422;SDS011;16399;51.686;8.684;2023-07-02T06:13:14;17.48;;;10.18;;
29422;SDS011;16399;51.686;8.684;2023-07-02T06:16:16;18.27;;;8.95;;
29422;SDS011;16399;51.686;8.684;2023-07-02T06:19:18;17.00;;;8.45;;
29422;SDS011;16399;51.686;8.684;2023-07-02T06:22:20;17.32;;;9.85;;
29422;SDS011;16399;51.686;8.684;2023-07-02T06:25:23;19.50;;;9.98;;
29422;SDS011;16399;51.686;8.684;2023-07-02T06:28:26;19.45;;;9.05;;
29422;SDS011;16399;51.686;8.684;2023-07-02T06:31:28;24.40;;;10.08;;
29422;SDS011;16399;51.686;8.684;2023-07-02T06:34:31;23.27;;;10.50;;
29422;SDS011;16399;51.686;8.684;2023-07-02T06:37:33;21.65;;;8.93;;
29422;SDS011;16399;51.686;8.684;2023-07-02T06:40:35;19.32;;;9.15;;
29422;SDS011;16399;51.686;8.684;2023-07-02T06:43:38;20.08;;;9.03;;
29422;SDS011;16399;51.686;8.684;2023-07-02T06:46:40;22.25;;;9.80;;
29422;SDS011;16399;51.686;8.684;2023-07-02T06:49:42;27.27;;;8.68;;
29422;SDS011;16399;51.686;8.684;2023-07-02T06:52:45;22.62;;;9.50;;
29422;SDS011;16399;51.686;8.684;2023-07-02T06:55:47;23.52;;;9.53;;
29422;SDS011;16399;51.686;8.684;2023-07-02T06:58:49;19.48;;;8.13;;
29422;SDS011;16399;51.686;8.684;2023-07-02T07:01:51;20.48;;;9.38;;
29422;SDS011;16399;51.686;8.684;2023-07-02T07:04:54;22.32;;;9.75;;
29422;SDS011;16399;51.686;8.684;2023-07-02T07:07:56;24.87;;;8.45;;
29422;SDS011;16399;51.686;8.684;2023-07-02T07:10:59;20.92;;;8.90;;
29422;SDS011;16399;51.686;8.684;2023-07-02T07:14:01;21.82;;;8.83;;
29422;SDS011;16399;51.686;8.684;2023-07-02T07:17:04;18.55;;;8.05;;
29422;SDS011;16399;51.686;8.684;2023-07-02T07:20:06;20.45;;;7.87;;
29422;SDS011;16399;51.686;8.684;2023-07-02T07:23:09;21.07;;;9.28;;
29422;SDS011;16399;51.686;8.684;2023-07-02T07:26:11;18.00;;;7.90;;
29422;SDS011;16399;51.686;8.684;2023-07-02T07:29:13;21.15;;;8.08;;
29422;SDS011;16399;51.686;8.684;2023-07-02T07:32:16;20.55;;;7.85;;
29422;SDS011;16399;51.686;8.684;2023-07-02T07:35:19;20.70;;;8.90;;
29422;SDS011;16399;51.686;8.684;2023-07-02T07:38:22;19.45;;;8.33;;
29422;SDS011;16399;51.686;8.684;2023-07-02T07:41:24;19.65;;;8.70;;
29422;SDS011;16399;51.686;8.684;2023-07-02T07:44:27;16.97;;;7.95;;
29422;SDS011;16399;51.686;8.684;2023-07-02T07:47:29;20.95;;;8.23;;
29422;SDS011;16399;51.686;8.684;2023-07-02T07:50:31;24.00;;;8.90;;
29422;SDS011;16399;51.686;8.684;2023-07-02T07:53:37;20.88;;;9.75;;
29422;SDS011;16399;51.686;8.684;2023-07-02T07:56:40;19.02;;;9.55;;
29422;SDS011;16399;51.686;8.684;2023-07-02T07:59:43;23.75;;;12.40;;
29422;SDS011;16399;51.686;8.684;2023-07-02T08:02:45;26.07;;;13.85;;
29422;SDS011;16399;51.686;8.684;2023-07-02T08:05:48;27.98;;;12.43;;
29422;SDS011;16399;51.686;8.684;2023-07-02T08:08:50;25.88;;;12.68;;
29422;SDS011;16399;51.686;8.684;2023-07-02T08:11:52;25.52;;;13.60;;
29422;SDS011;16399;51.686;8.684;2023-07-02T08:14:56;22.73;;;12.23;;
29422;SDS011;16399;51.686;8.684;2023-07-02T08:17:58;27.30;;;14.25;;
29422;SDS011;16399;51.686;8.684;2023-07-02T08:21:01;31.48;;;14.63;;
29422;SDS011;16399;51.686;8.684;2023-07-02T08:24:05;34.95;;;14.47;;
29422;SDS011;16399;51.686;8.684;2023-07-02T08:27:08;30.15;;;13.98;;
29422;SDS011;16399;51.686;8.684;2023-07-02T08:30:12;24.30;;;13.83;;
29422;SDS011;16399;51.686;8.684;2023-07-02T08:33:14;28.42;;;12.40;;
29422;SDS011;16399;51.686;8.684;2023-07-02T08:36:16;21.57;;;11.75;;
29422;SDS011;16399;51.686;8.684;2023-07-02T08:39:19;25.15;;;10.35;;
29422;SDS011;16399;51.686;8.684;2023-07-02T08:42:21;20.55;;;10.35;;
29422;SDS011;16399;51.686;8.684;2023-07-02T08:45:23;21.75;;;10.90;;
29422;SDS011;16399;51.686;8.684;2023-07-02T08:48:26;18.87;;;10.45;;
29422;SDS011;16399;51.686;8.684;2023-07-02T08:51:30;22.30;;;11.50;;
29422;SDS011;16399;51.686;8.684;2023-07-02T08:54:32;22.13;;;11.25;;
29422;SDS011;16399;51.686;8.684;2023-07-02T08:57:35;18.75;;;9.45;;
29422;SDS011;16399;51.686;8.684;2023-07-02T09:00:37;22.35;;;8.23;;
29422;SDS011;16399;51.686;8.684;2023-07-02T09:03:40;18.90;;;8.80;;
29422;SDS011;16399;51.686;8.684;2023-07-02T09:06:42;20.55;;;8.75;;
29422;SDS011;16399;51.686;8.684;2023-07-02T09:09:50;23.45;;;9.23;;
29422;SDS011;16399;51.686;8.684;2023-07-02T09:12:50;15.40;;;8.70;;
29422;SDS011;16399;51.686;8.684;2023-07-02T09:15:54;21.37;;;8.17;;
29422;SDS011;16399;51.686;8.684;2023-07-02T09:22:09;22.20;;;7.72;;
29422;SDS011;16399;51.686;8.684;2023-07-02T09:25:14;18.70;;;8.28;;
29422;SDS011;16399;51.686;8.684;2023-07-02T09:28:20;19.37;;;8.58;;
29422;SDS011;16399;51.686;8.684;2023-07-02T09:31:24;20.05;;;8.25;;
29422;SDS011;16399;51.686;8.684;2023-07-02T09:34:27;16.90;;;7.53;;
29422;SDS011;16399;51.686;8.684;2023-07-02T09:37:31;18.20;;;8.30;;
29422;SDS011;16399;51.686;8.684;2023-07-02T09:40:33;17.95;;;8.73;;
29422;SDS011;16399;51.686;8.684;2023-07-02T09:46:45;17.57;;;7.72;;
29422;SDS011;16399;51.686;8.684;2023-07-02T09:49:54;18.23;;;8.70;;
29422;SDS011;16399;51.686;8.684;2023-07-02T09:52:58;21.00;;;8.83;;
29422;SDS011;16399;51.686;8.684;2023-07-02T09:56:01;15.95;;;7.30;;
29422;SDS011;16399;51.686;8.684;2023-07-02T09:59:03;16.75;;;7.12;;
29422;SDS011;16399;51.686;8.684;2023-07-02T10:02:06;19.98;;;7.08;;
29422;SDS011;16399;51.686;8.684;2023-07-02T10:08:15;16.07;;;6.90;;
29422;SDS011;16399;51.686;8.684;2023-07-02T10:11:32;17.37;;;7.53;;
29422;SDS011;16399;51.686;8.684;2023-07-02T10:14:41;17.85;;;7.87;;
29422;SDS011;16399;51.686;8.684;2023-07-02T10:17:53;18.45;;;8.73;;
29422;SDS011;16399;51.686;8.684;2023-07-02T10:20:49;24.02;;;8.75;;
29422;SDS011;16399;51.686;8.684;2023-07-02T10:23:52;20.52;;;7.72;;
29422;SDS011;16399;51.686;8.684;2023-07-02T10:26:54;18.00;;;7.25;;
29422;SDS011;16399;51.686;8.684;2023-07-02T10:29:58;20.82;;;8.48;;
29422;SDS011;16399;51.686;8.684;2023-07-02T10:33:13;19.32;;;7.67;;
29422;SDS011;16399;51.686;8.684;2023-07-02T10:36:19;20.00;;;7.40;;
29422;SDS011;16399;51.686;8.684;2023-07-02T10:39:23;15.85;;;7.42;;
29422;SDS011;16399;51.686;8.684;2023-07-02T10:42:26;17.00;;;7.42;;
29422;SDS011;16399;51.686;8.684;2023-07-02T10:45:32;17.57;;;7.40;;
29422;SDS011;16399;51.686;8.684;2023-07-02T10:48:35;17.10;;;7.03;;
29422;SDS011;16399;51.686;8.684;2023-07-02T10:51:38;18.25;;;8.18;;
29422;SDS011;16399;51.686;8.684;2023-07-02T10:54:41;16.82;;;7.50;;
29422;SDS011;16399;51.686;8.684;2023-07-02T10:57:44;17.35;;;7.47;;
29422;SDS011;16399;51.686;8.684;2023-07-02T11:00:50;16.02;;;7.35;;
29422;SDS011;16399;51.686;8.684;2023-07-02T11:04:01;17.50;;;6.87;;
29422;SDS011;16399;51.686;8.684;2023-07-02T11:07:01;17.20;;;7.28;;
29422;SDS011;16399;51.686;8.684;2023-07-02T11:10:03;17.45;;;6.87;;
29422;SDS011;16399;51.686;8.684;2023-07-02T11:13:10;19.85;;;7.72;;
29422;SDS011;16399;51.686;8.684;2023-07-02T11:16:19;18.90;;;7.62;;
29422;SDS011;16399;51.686;8.684;2023-07-02T11:19:25;18.12;;;7.95;;
29422;SDS011;16399;51.686;8.684;2023-07-02T11:22:33;18.30;;;7.67;;
29422;SDS011;16399;51.686;8.684;2023-07-02T11:25:36;16.80;;;7.42;;
29422;SDS011;16399;51.686;8.684;2023-07-02T11:28:47;20.70;;;7.10;;
29422;SDS011;16399;51.686;8.684;2023-07-02T11:31:52;16.40;;;7.20;;
29422;SDS011;16399;51.686;8.684;2023-07-02T11:34:54;18.23;;;7.03;;
29422;SDS011;16399;51.686;8.684;2023-07-02T11:37:57;14.28;;;6.78;;
29422;SDS011;16399;51.686;8.684;2023-07-02T11:40:59;20.55;;;6.62;;
29422;SDS011;16399;51.686;8.684;2023-07-02T11:44:03;14.28;;;7.28;;
29422;SDS011;16399;51.686;8.684;2023-07-02T11:47:05;14.47;;;6.78;;
29422;SDS011;16399;51.686;8.684;2023-07-02T11:50:08;16.67;;;6.95;;
29422;SDS011;16399;51.686;8.684;2023-07-02T11:53:10;16.48;;;6.20;;
29422;SDS011;16399;51.686;8.684;2023-07-02T11:56:12;14.83;;;7.17;;
29422;SDS011;16399;51.686;8.684;2023-07-02T11:59:15;16.07;;;6.70;;
29422;SDS011;16399;51.686;8.684;2023-07-02T12:02:17;13.75;;;6.95;;
29422;SDS011;16399;51.686;8.684;2023-07-02T12:05:20;17.87;;;6.25;;
29422;SDS011;16399;51.686;8.684;2023-07-02T12:08:23;13.70;;;6.33;;
29422;SDS011;16399;51.686;8.684;2023-07-02T12:11:25;12.45;;;5.78;;
29422;SDS011;16399;51.686;8.684;2023-07-02T12:14:27;14.30;;;5.95;;
29422;SDS011;16399;51.686;8.684;2023-07-02T12:17:29;17.27;;;6.60;;
29422;SDS011;16399;51.686;8.684;2023-07-02T12:20:32;15.45;;;6.97;;
29422;SDS011;16399;51.686;8.684;2023-07-02T12:23:34;15.90;;;6.85;;
29422;SDS011;16399;51.686;8.684;2023-07-02T12:26:36;15.32;;;7.25;;
29422;SDS011;16399;51.686;8.684;2023-07-02T12:29:39;16.42;;;6.78;;
29422;SDS011;16399;51.686;8.684;2023-07-02T12:32:41;17.17;;;7.65;;
29422;SDS011;16399;51.686;8.684;2023-07-02T12:35:43;16.27;;;6.80;;
29422;SDS011;16399;51.686;8.684;2023-07-02T12:38:46;14.55;;;6.35;;
29422;SDS011;16399;51.686;8.684;2023-07-02T12:41:48;15.63;;;7.00;;
29422;SDS011;16399;51.686;8.684;2023-07-02T12:44:50;18.23;;;7.15;;
29422;SDS011;16399;51.686;8.684;2023-07-02T12:47:53;16.15;;;6.70;;
29422;SDS011;16399;51.686;8.684;2023-07-02T12:50:55;14.83;;;6.62;;
29422;SDS011;16399;51.686;8.684;2023-07-02T12:53:59;13.83;;;6.17;;
29422;SDS011;16399;51.686;8.684;2023-07-02T12:57:01;17.17;;;6.45;;
29422;SDS011;16399;51.686;8.684;2023-07-02T13:00:03;13.95;;;6.35;;
29422;SDS011;16399;51.686;8.684;2023-07-02T13:03:09;15.70;;;6.72;;
29422;SDS011;16399;51.686;8.684;2023-07-02T13:06:11;14.45;;;6.45;;
29422;SDS011;16399;51.686;8.684;2023-07-02T13:09:13;14.70;;;6.85;;
29422;SDS011;16399;51.686;8.684;2023-07-02T13:12:16;16.30;;;6.70;;
29422;SDS011;16399;51.686;8.684;2023-07-02T13:15:18;13.83;;;7.40;;
29422;SDS011;16399;51.686;8.684;2023-07-02T13:18:21;14.50;;;6.47;;
29422;SDS011;16399;51.686;8.684;2023-07-02T13:21:23;17.55;;;6.80;;
29422;SDS011;16399;51.686;8.684;2023-07-02T13:24:27;21.23;;;7.05;;
29422;SDS011;16399;51.686;8.684;2023-07-02T13:27:31;18.25;;;6.97;;
29422;SDS011;16399;51.686;8.684;2023-07-02T13:30:33;16.07;;;6.28;;
29422;SDS011;16399;51.686;8.684;2023-07-02T13:33:35;14.45;;;6.45;;
29422;SDS011;16399;51.686;8.684;2023-07-02T13:36:38;16.60;;;7.97;;
29422;SDS011;16399;51.686;8.684;2023-07-02T13:39:41;16.67;;;6.55;;
29422;SDS011;16399;51.686;8.684;2023-07-02T13:42:43;14.55;;;6.25;;
29422;SDS011;16399;51.686;8.684;2023-07-02T13:45:45;13.83;;;6.03;;
29422;SDS011;16399;51.686;8.684;2023-07-02T13:48:48;16.82;;;6.72;;
29422;SDS011;16399;51.686;8.684;2023-07-02T13:51:50;14.63;;;6.95;;
29422;SDS011;16399;51.686;8.684;2023-07-02T13:54:52;15.85;;;6.65;;
29422;SDS011;16399;51.686;8.684;2023-07-02T13:57:55;12.53;;;6.08;;
29422;SDS011;16399;51.686;8.684;2023-07-02T14:00:57;14.70;;;6.67;;
29422;SDS011;16399;51.686;8.684;2023-07-02T14:04:01;15.78;;;6.37;;
29422;SDS011;16399;51.686;8.684;2023-07-02T14:10:06;11.85;;;6.08;;
29422;SDS011;16399;51.686;8.684;2023-07-02T14:13:09;13.98;;;6.08;;
29422;SDS011;16399;51.686;8.684;2023-07-02T14:16:11;15.65;;;6.12;;
29422;SDS011;16399;51.686;8.684;2023-07-02T14:19:14;14.13;;;5.20;;
29422;SDS011;16399;51.686;8.684;2023-07-02T14:22:17;17.55;;;6.35;;
29422;SDS011;16399;51.686;8.684;2023-07-02T14:25:20;15.45;;;5.17;;
29422;SDS011;16399;51.686;8.684;2023-07-02T14:28:22;13.72;;;5.47;;
29422;SDS011;16399;51.686;8.684;2023-07-02T14:31:26;14.95;;;6.22;;
29422;SDS011;16399;51.686;8.684;2023-07-02T14:34:28;15.00;;;5.80;;
29422;SDS011;16399;51.686;8.684;2023-07-02T14:37:31;16.73;;;6.03;;
29422;SDS011;16399;51.686;8.684;2023-07-02T14:40:33;10.80;;;5.42;;
29422;SDS011;16399;51.686;8.684;2023-07-02T14:43:35;12.63;;;5.33;;
29422;SDS011;16399;51.686;8.684;2023-07-02T14:46:38;12.03;;;5.20;;
29422;SDS011;16399;51.686;8.684;2023-07-02T14:49:40;11.48;;;6.05;;
29422;SDS011;16399;51.686;8.684;2023-07-02T14:52:42;12.15;;;4.83;;
29422;SDS011;16399;51.686;8.684;2023-07-02T14:55:45;12.33;;;5.03;;
29422;SDS011;16399;51.686;8.684;2023-07-02T14:58:48;9.98;;;4.67;;
29422;SDS011;16399;51.686;8.684;2023-07-02T15:01:50;10.20;;;4.95;;
29422;SDS011;16399;51.686;8.684;2023-07-02T15:04:53;10.78;;;4.55;;
29422;SDS011;16399;51.686;8.684;2023-07-02T15:07:55;13.40;;;4.90;;
29422;SDS011;16399;51.686;8.684;2023-07-02T15:10:57;12.30;;;4.55;;
29422;SDS011;16399;51.686;8.684;2023-07-02T15:14:00;11.03;;;4.92;;
29422;SDS011;16399;51.686;8.684;2023-07-02T15:17:02;10.95;;;5.22;;
29422;SDS011;16399;51.686;8.684;2023-07-02T15:20:05;12.43;;;5.33;;
29422;SDS011;16399;51.686;8.684;2023-07-02T15:23:07;11.30;;;5.03;;
29422;SDS011;16399;51.686;8.684;2023-07-02T15:26:10;15.45;;;4.70;;
29422;SDS011;16399;51.686;8.684;2023-07-02T15:29:12;10.15;;;5.05;;
29422;SDS011;16399;51.686;8.684;2023-07-02T15:32:14;11.18;;;4.65;;
29422;SDS011;16399;51.686;8.684;2023-07-02T15:35:17;11.80;;;5.70;;
29422;SDS011;16399;51.686;8.684;2023-07-02T15:38:19;9.35;;;4.58;;
29422;SDS011;16399;51.686;8.684;2023-07-02T15:41:22;12.30;;;5.03;;
29422;SDS011;16399;51.686;8.684;2023-07-02T15:44:26;14.60;;;5.70;;
29422;SDS011;16399;51.686;8.684;2023-07-02T15:47:28;15.32;;;5.45;;
29422;SDS011;16399;51.686;8.684;2023-07-02T15:50:31;11.83;;;5.72;;
29422;SDS011;16399;51.686;8.684;2023-07-02T15:53:34;13.28;;;5.40;;
29422;SDS011;16399;51.686;8.684;2023-07-02T15:56:37;14.67;;;5.90;;
29422;SDS011;16399;51.686;8.684;2023-07-02T15:59:39;13.22;;;5.42;;
29422;SDS011;16399;51.686;8.684;2023-07-02T16:02:42;12.82;;;5.50;;
29422;SDS011;16399;51.686;8.684;2023-07-02T16:05:45;17.12;;;5.45;;
29422;SDS011;16399;51.686;8.684;2023-07-02T16:08:47;11.70;;;4.83;;
29422;SDS011;16399;51.686;8.684;2023-07-02T16:11:49;17.85;;;5.92;;
29422;SDS011;16399;51.686;8.684;2023-07-02T16:14:52;12.93;;;5.85;;
29422;SDS011;16399;51.686;8.684;2023-07-02T16:17:56;14.95;;;6.00;;
29422;SDS011;16399;51.686;8.684;2023-07-02T16:20:59;11.78;;;5.17;;
29422;SDS011;16399;51.686;8.684;2023-07-02T16:24:03;11.08;;;5.12;;
29422;SDS011;16399;51.686;8.684;2023-07-02T16:27:07;16.65;;;5.92;;
29422;SDS011;16399;51.686;8.684;2023-07-02T16:30:14;15.38;;;5.85;;
29422;SDS011;16399;51.686;8.684;2023-07-02T16:33:17;13.88;;;5.70;;
29422;SDS011;16399;51.686;8.684;2023-07-02T16:36:19;12.85;;;5.53;;
29422;SDS011;16399;51.686;8.684;2023-07-02T16:39:22;13.78;;;5.87;;
29422;SDS011;16399;51.686;8.684;2023-07-02T16:42:24;16.27;;;6.75;;
29422;SDS011;16399;51.686;8.684;2023-07-02T16:45:27;19.10;;;6.50;;
29422;SDS011;16399;51.686;8.684;2023-07-02T16:48:29;17.48;;;6.87;;
29422;SDS011;16399;51.686;8.684;2023-07-02T16:51:32;12.43;;;5.67;;
29422;SDS011;16399;51.686;8.684;2023-07-02T16:54:34;15.83;;;6.22;;
29422;SDS011;16399;51.686;8.684;2023-07-02T16:57:36;16.27;;;6.70;;
29422;SDS011;16399;51.686;8.684;2023-07-02T17:00:39;18.27;;;6.55;;
29422;SDS011;16399;51.686;8.684;2023-07-02T17:03:44;13.32;;;6.47;;
29422;SDS011;16399;51.686;8.684;2023-07-02T17:06:49;14.83;;;6.20;;
29422;SDS011;16399;51.686;8.684;2023-07-02T17:09:53;15.78;;;6.92;;
29422;SDS011;16399;51.686;8.684;2023-07-02T17:12:55;15.23;;;6.95;;
29422;SDS011;16399;51.686;8.684;2023-07-02T17:15:57;16.45;;;6.53;;
29422;SDS011;16399;51.686;8.684;2023-07-02T17:18:59;14.83;;;6.80;;
29422;SDS011;16399;51.686;8.684;2023-07-02T17:22:03;17.42;;;6.65;;
29422;SDS011;16399;51.686;8.684;2023-07-02T17:25:07;18.23;;;7.45;;
29422;SDS011;16399;51.686;8.684;2023-07-02T17:28:09;16.23;;;7.17;;
29422;SDS011;16399;51.686;8.684;2023-07-02T17:31:12;15.43;;;7.08;;
29422;SDS011;16399;51.686;8.684;2023-07-02T17:34:15;13.53;;;6.53;;
29422;SDS011;16399;51.686;8.684;2023-07-02T17:37:19;18.90;;;7.10;;
29422;SDS011;16399;51.686;8.684;2023-07-02T17:40:22;16.75;;;7.00;;
29422;SDS011;16399;51.686;8.684;2023-07-02T17:43:24;15.05;;;6.83;;
29422;SDS011;16399;51.686;8.684;2023-07-02T17:46:27;16.35;;;6.53;;
29422;SDS011;16399;51.686;8.684;2023-07-02T17:49:29;20.08;;;7.83;;
29422;SDS011;16399;51.686;8.684;2023-07-02T17:52:32;18.42;;;7.87;;
29422;SDS011;16399;51.686;8.684;2023-07-02T17:55:34;18.40;;;6.90;;
29422;SDS011;16399;51.686;8.684;2023-07-02T17:58:36;14.90;;;6.92;;
29422;SDS011;16399;51.686;8.684;2023-07-02T18:01:39;17.27;;;6.67;;
29422;SDS011;16399;51.686;8.684;2023-07-02T18:07:46;16.20;;;7.28;;
29422;SDS011;16399;51.686;8.684;2023-07-02T18:10:49;16.12;;;6.45;;
29422;SDS011;16399;51.686;8.684;2023-07-02T18:13:51;18.98;;;6.35;;
29422;SDS011;16399;51.686;8.684;2023-07-02T18:16:54;14.65;;;6.85;;
29422;SDS011;16399;51.686;8.684;2023-07-02T18:19:57;15.98;;;6.15;;